sensor_id;sensor_type;location;lat;lon;timestamp;P1;durP1;ratioP1;P2;durP2;ratioP2
46407;SDS011;32110;45.724;21.276;2023-04-03T00:01:21;9.32;;;5.85;;
46407;SDS011;32110;45.724;21.276;2023-04-03T00:03:46;9.95;;;6.35;;
46407;SDS011;32110;45.724;21.276;2023-04-03T00:06:12;11.40;;;5.97;;
46407;SDS011;32110;45.724;21.276;2023-04-03T00:08:37;8.90;;;5.82;;
46407;SDS011;32110;45.724;21.276;2023-04-03T00:11:04;12.00;;;6.65;;
46407;SDS011;32110;45.724;21.276;2023-04-03T00:13:29;10.38;;;6.28;;
46407;SDS011;32110;45.724;21.276;2023-04-03T00:15:55;11.75;;;6.68;;
46407;SDS011;32110;45.724;21.276;2023-04-03T00:18:20;12.20;;;7.18;;
46407;SDS011;32110;45.724;21.276;2023-04-03T00:20:45;15.77;;;7.28;;
46407;SDS011;32110;45.724;21.276;2023-04-03T00:23:11;10.97;;;6.73;;
46407;SDS011;32110;45.724;21.276;2023-04-03T00:25:36;14.17;;;7.50;;
46407;SDS011;32110;45.724;21.276;2023-04-03T00:28:01;14.70;;;7.25;;
46407;SDS011;32110;45.724;21.276;2023-04-03T00:30:27;14.27;;;7.63;;
46407;SDS011;32110;45.724;21.276;2023-04-03T00:32:52;12.87;;;6.83;;
46407;SDS011;32110;45.724;21.276;2023-04-03T00:35:18;11.77;;;7.15;;
46407;SDS011;32110;45.724;21.276;2023-04-03T00:37:43;15.00;;;7.45;;
46407;SDS011;32110;45.724;21.276;2023-04-03T00:40:09;12.77;;;7.93;;
46407;SDS011;32110;45.724;21.276;2023-04-03T00:42:39;12.57;;;7.38;;
46407;SDS011;32110;45.724;21.276;2023-04-03T00:47:30;13.82;;;8.23;;
46407;SDS011;32110;45.724;21.276;2023-04-03T00:49:55;14.07;;;7.75;;
46407;SDS011;32110;45.724;21.276;2023-04-03T00:52:22;13.18;;;7.50;;
46407;SDS011;32110;45.724;21.276;2023-04-03T00:54:49;12.95;;;7.90;;
46407;SDS011;32110;45.724;21.276;2023-04-03T00:57:15;12.13;;;7.50;;
46407;SDS011;32110;45.724;21.276;2023-04-03T00:59:46;12.65;;;7.70;;
46407;SDS011;32110;45.724;21.276;2023-04-03T01:02:13;13.35;;;7.65;;
46407;SDS011;32110;45.724;21.276;2023-04-03T01:04:39;12.88;;;7.35;;
46407;SDS011;32110;45.724;21.276;2023-04-03T01:09:34;13.75;;;7.97;;
46407;SDS011;32110;45.724;21.276;2023-04-03T01:15:02;14.63;;;8.00;;
46407;SDS011;32110;45.724;21.276;2023-04-03T01:17:29;14.55;;;8.02;;
46407;SDS011;32110;45.724;21.276;2023-04-03T01:22:46;14.98;;;7.00;;
46407;SDS011;32110;45.724;21.276;2023-04-03T01:25:12;14.27;;;7.35;;
46407;SDS011;32110;45.724;21.276;2023-04-03T01:27:37;13.13;;;7.32;;
46407;SDS011;32110;45.724;21.276;2023-04-03T01:30:03;12.87;;;7.00;;
46407;SDS011;32110;45.724;21.276;2023-04-03T01:32:28;13.43;;;7.18;;
46407;SDS011;32110;45.724;21.276;2023-04-03T01:34:53;14.20;;;7.17;;
46407;SDS011;32110;45.724;21.276;2023-04-03T01:37:19;11.87;;;6.40;;
46407;SDS011;32110;45.724;21.276;2023-04-03T01:39:44;11.43;;;6.30;;
46407;SDS011;32110;45.724;21.276;2023-04-03T01:42:09;12.27;;;7.07;;
46407;SDS011;32110;45.724;21.276;2023-04-03T01:44:36;11.07;;;6.50;;
46407;SDS011;32110;45.724;21.276;2023-04-03T01:47:01;14.07;;;7.17;;
46407;SDS011;32110;45.724;21.276;2023-04-03T01:49:26;14.27;;;8.03;;
46407;SDS011;32110;45.724;21.276;2023-04-03T01:51:52;12.40;;;7.05;;
46407;SDS011;32110;45.724;21.276;2023-04-03T01:54:17;11.63;;;6.30;;
46407;SDS011;32110;45.724;21.276;2023-04-03T01:56:42;13.80;;;6.97;;
46407;SDS011;32110;45.724;21.276;2023-04-03T01:59:08;13.88;;;7.60;;
46407;SDS011;32110;45.724;21.276;2023-04-03T02:01:33;14.10;;;7.22;;
46407;SDS011;32110;45.724;21.276;2023-04-03T02:03:58;12.37;;;7.03;;
46407;SDS011;32110;45.724;21.276;2023-04-03T02:06:24;14.33;;;6.83;;
46407;SDS011;32110;45.724;21.276;2023-04-03T02:08:50;11.65;;;6.72;;
46407;SDS011;32110;45.724;21.276;2023-04-03T02:11:15;14.97;;;6.40;;
46407;SDS011;32110;45.724;21.276;2023-04-03T02:13:41;12.82;;;6.10;;
46407;SDS011;32110;45.724;21.276;2023-04-03T02:16:07;10.65;;;6.00;;
46407;SDS011;32110;45.724;21.276;2023-04-03T02:18:33;9.48;;;6.00;;
46407;SDS011;32110;45.724;21.276;2023-04-03T02:20:58;11.07;;;6.00;;
46407;SDS011;32110;45.724;21.276;2023-04-03T02:23:23;11.13;;;6.10;;
46407;SDS011;32110;45.724;21.276;2023-04-03T02:25:48;10.40;;;5.67;;
46407;SDS011;32110;45.724;21.276;2023-04-03T02:28:14;12.52;;;6.35;;
46407;SDS011;32110;45.724;21.276;2023-04-03T02:30:39;13.50;;;6.50;;
46407;SDS011;32110;45.724;21.276;2023-04-03T02:33:04;12.57;;;6.27;;
46407;SDS011;32110;45.724;21.276;2023-04-03T02:35:30;13.67;;;6.40;;
46407;SDS011;32110;45.724;21.276;2023-04-03T02:37:55;10.70;;;6.13;;
46407;SDS011;32110;45.724;21.276;2023-04-03T02:40:20;11.95;;;6.00;;
46407;SDS011;32110;45.724;21.276;2023-04-03T02:42:46;9.70;;;5.67;;
46407;SDS011;32110;45.724;21.276;2023-04-03T02:45:11;12.15;;;5.43;;
46407;SDS011;32110;45.724;21.276;2023-04-03T02:47:36;11.77;;;5.25;;
46407;SDS011;32110;45.724;21.276;2023-04-03T02:50:02;10.60;;;5.50;;
46407;SDS011;32110;45.724;21.276;2023-04-03T02:52:27;11.52;;;5.00;;
46407;SDS011;32110;45.724;21.276;2023-04-03T02:54:52;9.85;;;5.70;;
46407;SDS011;32110;45.724;21.276;2023-04-03T02:57:18;13.57;;;5.00;;
46407;SDS011;32110;45.724;21.276;2023-04-03T02:59:44;9.18;;;5.20;;
46407;SDS011;32110;45.724;21.276;2023-04-03T03:02:10;10.55;;;5.70;;
46407;SDS011;32110;45.724;21.276;2023-04-03T03:04:35;10.15;;;4.75;;
46407;SDS011;32110;45.724;21.276;2023-04-03T03:07:01;10.00;;;5.07;;
46407;SDS011;32110;45.724;21.276;2023-04-03T03:09:27;9.57;;;4.72;;
46407;SDS011;32110;45.724;21.276;2023-04-03T03:11:52;9.32;;;5.30;;
46407;SDS011;32110;45.724;21.276;2023-04-03T03:14:18;8.73;;;4.82;;
46407;SDS011;32110;45.724;21.276;2023-04-03T03:16:43;9.40;;;5.57;;
46407;SDS011;32110;45.724;21.276;2023-04-03T03:19:09;12.05;;;4.88;;
46407;SDS011;32110;45.724;21.276;2023-04-03T03:21:34;9.65;;;5.50;;
46407;SDS011;32110;45.724;21.276;2023-04-03T03:23:59;8.18;;;4.90;;
46407;SDS011;32110;45.724;21.276;2023-04-03T03:26:25;10.00;;;4.73;;
46407;SDS011;32110;45.724;21.276;2023-04-03T03:28:50;10.55;;;5.20;;
46407;SDS011;32110;45.724;21.276;2023-04-03T03:31:15;8.32;;;4.75;;
46407;SDS011;32110;45.724;21.276;2023-04-03T03:33:40;9.47;;;5.13;;
46407;SDS011;32110;45.724;21.276;2023-04-03T03:36:06;8.68;;;4.90;;
46407;SDS011;32110;45.724;21.276;2023-04-03T03:38:31;11.15;;;4.88;;
46407;SDS011;32110;45.724;21.276;2023-04-03T03:40:56;7.17;;;4.57;;
46407;SDS011;32110;45.724;21.276;2023-04-03T03:43:22;8.00;;;4.75;;
46407;SDS011;32110;45.724;21.276;2023-04-03T03:45:50;9.77;;;4.50;;
46407;SDS011;32110;45.724;21.276;2023-04-03T03:48:16;10.85;;;5.50;;
46407;SDS011;32110;45.724;21.276;2023-04-03T03:50:41;10.40;;;5.10;;
46407;SDS011;32110;45.724;21.276;2023-04-03T03:53:06;12.73;;;6.53;;
46407;SDS011;32110;45.724;21.276;2023-04-03T03:55:32;9.65;;;4.57;;
46407;SDS011;32110;45.724;21.276;2023-04-03T03:57:57;7.90;;;4.65;;
46407;SDS011;32110;45.724;21.276;2023-04-03T04:00:22;9.88;;;4.55;;
46407;SDS011;32110;45.724;21.276;2023-04-03T04:02:48;10.25;;;4.43;;
46407;SDS011;32110;45.724;21.276;2023-04-03T04:05:13;8.20;;;4.35;;
46407;SDS011;32110;45.724;21.276;2023-04-03T04:07:39;7.30;;;4.40;;
46407;SDS011;32110;45.724;21.276;2023-04-03T04:10:04;7.10;;;4.28;;
46407;SDS011;32110;45.724;21.276;2023-04-03T04:12:30;10.55;;;4.70;;
46407;SDS011;32110;45.724;21.276;2023-04-03T04:14:55;7.25;;;4.50;;
46407;SDS011;32110;45.724;21.276;2023-04-03T04:17:21;9.90;;;4.70;;
46407;SDS011;32110;45.724;21.276;2023-04-03T04:19:46;7.95;;;4.50;;
46407;SDS011;32110;45.724;21.276;2023-04-03T04:22:12;8.27;;;4.20;;
46407;SDS011;32110;45.724;21.276;2023-04-03T04:24:37;7.97;;;4.55;;
46407;SDS011;32110;45.724;21.276;2023-04-03T04:27:02;6.95;;;4.07;;
46407;SDS011;32110;45.724;21.276;2023-04-03T04:29:28;8.15;;;4.80;;
46407;SDS011;32110;45.724;21.276;2023-04-03T04:31:53;7.85;;;4.28;;
46407;SDS011;32110;45.724;21.276;2023-04-03T04:34:19;8.15;;;5.00;;
46407;SDS011;32110;45.724;21.276;2023-04-03T04:36:44;12.25;;;5.80;;
46407;SDS011;32110;45.724;21.276;2023-04-03T04:39:10;9.43;;;5.30;;
46407;SDS011;32110;45.724;21.276;2023-04-03T04:41:35;9.65;;;5.47;;
46407;SDS011;32110;45.724;21.276;2023-04-03T04:44:00;12.57;;;5.40;;
46407;SDS011;32110;45.724;21.276;2023-04-03T04:46:26;8.05;;;4.88;;
46407;SDS011;32110;45.724;21.276;2023-04-03T04:48:51;9.73;;;5.13;;
46407;SDS011;32110;45.724;21.276;2023-04-03T04:51:17;8.32;;;5.68;;
46407;SDS011;32110;45.724;21.276;2023-04-03T04:53:43;7.22;;;4.63;;
46407;SDS011;32110;45.724;21.276;2023-04-03T04:56:08;9.70;;;5.07;;
46407;SDS011;32110;45.724;21.276;2023-04-03T04:58:34;9.13;;;4.93;;
46407;SDS011;32110;45.724;21.276;2023-04-03T05:01:01;8.45;;;5.07;;
46407;SDS011;32110;45.724;21.276;2023-04-03T05:03:28;9.10;;;5.50;;
46407;SDS011;32110;45.724;21.276;2023-04-03T05:05:54;8.32;;;5.30;;
46407;SDS011;32110;45.724;21.276;2023-04-03T05:08:19;9.25;;;4.65;;
46407;SDS011;32110;45.724;21.276;2023-04-03T05:10:45;8.02;;;5.10;;
46407;SDS011;32110;45.724;21.276;2023-04-03T05:13:11;9.90;;;5.63;;
46407;SDS011;32110;45.724;21.276;2023-04-03T05:15:36;11.77;;;5.03;;
46407;SDS011;32110;45.724;21.276;2023-04-03T05:18:02;9.90;;;5.18;;
46407;SDS011;32110;45.724;21.276;2023-04-03T05:20:27;8.38;;;5.15;;
46407;SDS011;32110;45.724;21.276;2023-04-03T05:22:53;8.18;;;4.57;;
46407;SDS011;32110;45.724;21.276;2023-04-03T05:25:18;7.43;;;5.00;;
46407;SDS011;32110;45.724;21.276;2023-04-03T05:27:43;7.47;;;4.78;;
46407;SDS011;32110;45.724;21.276;2023-04-03T05:30:09;7.13;;;4.25;;
46407;SDS011;32110;45.724;21.276;2023-04-03T05:32:34;7.47;;;4.40;;
46407;SDS011;32110;45.724;21.276;2023-04-03T05:35:00;6.35;;;3.88;;
46407;SDS011;32110;45.724;21.276;2023-04-03T05:37:25;11.87;;;4.23;;
46407;SDS011;32110;45.724;21.276;2023-04-03T05:39:50;5.90;;;3.90;;
46407;SDS011;32110;45.724;21.276;2023-04-03T05:42:16;13.60;;;4.35;;
46407;SDS011;32110;45.724;21.276;2023-04-03T05:44:41;8.75;;;3.95;;
46407;SDS011;32110;45.724;21.276;2023-04-03T05:47:07;7.85;;;4.30;;
46407;SDS011;32110;45.724;21.276;2023-04-03T05:49:33;6.38;;;3.78;;
46407;SDS011;32110;45.724;21.276;2023-04-03T05:51:58;5.60;;;3.67;;
46407;SDS011;32110;45.724;21.276;2023-04-03T05:54:25;6.07;;;3.45;;
46407;SDS011;32110;45.724;21.276;2023-04-03T05:56:50;9.38;;;3.72;;
46407;SDS011;32110;45.724;21.276;2023-04-03T05:59:17;6.22;;;3.65;;
46407;SDS011;32110;45.724;21.276;2023-04-03T06:01:42;5.47;;;3.17;;
46407;SDS011;32110;45.724;21.276;2023-04-03T06:04:07;6.18;;;3.67;;
46407;SDS011;32110;45.724;21.276;2023-04-03T06:09:28;8.73;;;3.90;;
46407;SDS011;32110;45.724;21.276;2023-04-03T06:11:54;5.78;;;3.47;;
46407;SDS011;32110;45.724;21.276;2023-04-03T06:14:20;7.43;;;3.70;;
46407;SDS011;32110;45.724;21.276;2023-04-03T06:16:46;4.97;;;3.15;;
46407;SDS011;32110;45.724;21.276;2023-04-03T06:19:12;6.57;;;3.35;;
46407;SDS011;32110;45.724;21.276;2023-04-03T06:21:37;5.72;;;3.58;;
46407;SDS011;32110;45.724;21.276;2023-04-03T06:24:03;9.82;;;4.05;;
46407;SDS011;32110;45.724;21.276;2023-04-03T06:26:30;8.55;;;3.58;;
46407;SDS011;32110;45.724;21.276;2023-04-03T06:28:55;8.45;;;4.95;;
46407;SDS011;32110;45.724;21.276;2023-04-03T06:31:21;8.65;;;4.55;;
46407;SDS011;32110;45.724;21.276;2023-04-03T06:33:46;6.10;;;3.67;;
46407;SDS011;32110;45.724;21.276;2023-04-03T06:36:11;5.77;;;3.83;;
46407;SDS011;32110;45.724;21.276;2023-04-03T06:38:37;5.38;;;3.35;;
46407;SDS011;32110;45.724;21.276;2023-04-03T06:41:02;7.60;;;4.10;;
46407;SDS011;32110;45.724;21.276;2023-04-03T06:43:27;6.57;;;3.30;;
46407;SDS011;32110;45.724;21.276;2023-04-03T06:45:53;5.77;;;3.40;;
46407;SDS011;32110;45.724;21.276;2023-04-03T06:48:18;5.83;;;2.97;;
46407;SDS011;32110;45.724;21.276;2023-04-03T06:50:43;5.40;;;3.30;;
46407;SDS011;32110;45.724;21.276;2023-04-03T06:53:09;5.18;;;2.53;;
46407;SDS011;32110;45.724;21.276;2023-04-03T06:55:34;4.53;;;3.03;;
46407;SDS011;32110;45.724;21.276;2023-04-03T06:58:00;5.13;;;3.15;;
46407;SDS011;32110;45.724;21.276;2023-04-03T07:00:26;8.90;;;3.53;;
46407;SDS011;32110;45.724;21.276;2023-04-03T07:02:51;8.75;;;4.05;;
46407;SDS011;32110;45.724;21.276;2023-04-03T07:05:17;5.18;;;2.83;;
46407;SDS011;32110;45.724;21.276;2023-04-03T07:07:43;6.35;;;2.80;;
46407;SDS011;32110;45.724;21.276;2023-04-03T07:10:08;4.65;;;3.08;;
46407;SDS011;32110;45.724;21.276;2023-04-03T07:12:34;5.88;;;3.00;;
46407;SDS011;32110;45.724;21.276;2023-04-03T07:15:00;4.43;;;2.80;;
46407;SDS011;32110;45.724;21.276;2023-04-03T07:17:25;4.73;;;3.10;;
46407;SDS011;32110;45.724;21.276;2023-04-03T07:19:51;6.85;;;2.85;;
46407;SDS011;32110;45.724;21.276;2023-04-03T07:22:17;7.43;;;3.37;;
46407;SDS011;32110;45.724;21.276;2023-04-03T07:24:42;5.67;;;3.20;;
46407;SDS011;32110;45.724;21.276;2023-04-03T07:27:07;8.03;;;2.97;;
46407;SDS011;32110;45.724;21.276;2023-04-03T07:29:33;4.95;;;2.97;;
46407;SDS011;32110;45.724;21.276;2023-04-03T07:31:58;5.13;;;3.10;;
46407;SDS011;32110;45.724;21.276;2023-04-03T07:34:24;5.40;;;2.90;;
46407;SDS011;32110;45.724;21.276;2023-04-03T07:36:49;8.02;;;3.90;;
46407;SDS011;32110;45.724;21.276;2023-04-03T07:39:15;9.05;;;4.15;;
46407;SDS011;32110;45.724;21.276;2023-04-03T07:41:40;8.27;;;3.33;;
46407;SDS011;32110;45.724;21.276;2023-04-03T07:44:05;8.77;;;4.23;;
46407;SDS011;32110;45.724;21.276;2023-04-03T07:46:31;10.40;;;3.83;;
46407;SDS011;32110;45.724;21.276;2023-04-03T07:48:56;6.45;;;3.55;;
46407;SDS011;32110;45.724;21.276;2023-04-03T07:51:21;7.65;;;3.70;;
46407;SDS011;32110;45.724;21.276;2023-04-03T07:53:47;4.80;;;2.97;;
46407;SDS011;32110;45.724;21.276;2023-04-03T07:56:13;5.05;;;2.85;;
46407;SDS011;32110;45.724;21.276;2023-04-03T07:58:38;5.30;;;3.25;;
46407;SDS011;32110;45.724;21.276;2023-04-03T08:01:04;5.70;;;2.90;;
46407;SDS011;32110;45.724;21.276;2023-04-03T08:03:29;5.50;;;2.90;;
46407;SDS011;32110;45.724;21.276;2023-04-03T08:05:54;4.93;;;3.00;;
46407;SDS011;32110;45.724;21.276;2023-04-03T08:08:21;6.60;;;3.20;;
46407;SDS011;32110;45.724;21.276;2023-04-03T08:10:50;5.03;;;2.97;;
46407;SDS011;32110;45.724;21.276;2023-04-03T08:13:16;6.20;;;2.78;;
46407;SDS011;32110;45.724;21.276;2023-04-03T08:15:41;5.28;;;3.30;;
46407;SDS011;32110;45.724;21.276;2023-04-03T08:18:07;8.67;;;3.37;;
46407;SDS011;32110;45.724;21.276;2023-04-03T08:20:32;5.28;;;3.22;;
46407;SDS011;32110;45.724;21.276;2023-04-03T08:22:57;5.83;;;3.30;;
46407;SDS011;32110;45.724;21.276;2023-04-03T08:25:22;8.73;;;3.37;;
46407;SDS011;32110;45.724;21.276;2023-04-03T08:27:48;5.68;;;3.38;;
46407;SDS011;32110;45.724;21.276;2023-04-03T08:30:13;5.82;;;3.40;;
46407;SDS011;32110;45.724;21.276;2023-04-03T08:32:39;8.02;;;3.17;;
46407;SDS011;32110;45.724;21.276;2023-04-03T08:35:06;5.55;;;3.30;;
46407;SDS011;32110;45.724;21.276;2023-04-03T08:37:34;7.07;;;3.80;;
46407;SDS011;32110;45.724;21.276;2023-04-03T08:39:59;12.15;;;4.88;;
46407;SDS011;32110;45.724;21.276;2023-04-03T08:45:02;8.32;;;3.88;;
46407;SDS011;32110;45.724;21.276;2023-04-03T08:57:14;10.15;;;4.85;;
46407;SDS011;32110;45.724;21.276;2023-04-03T08:59:40;8.63;;;4.38;;
46407;SDS011;32110;45.724;21.276;2023-04-03T09:02:25;19.35;;;7.40;;
46407;SDS011;32110;45.724;21.276;2023-04-03T09:04:53;11.35;;;5.40;;
46407;SDS011;32110;45.724;21.276;2023-04-03T09:07:39;18.02;;;8.52;;
46407;SDS011;32110;45.724;21.276;2023-04-03T09:10:08;18.10;;;7.72;;
46407;SDS011;32110;45.724;21.276;2023-04-03T09:12:39;24.75;;;11.40;;
46407;SDS011;32110;45.724;21.276;2023-04-03T09:15:19;11.75;;;5.78;;
46407;SDS011;32110;45.724;21.276;2023-04-03T09:21:08;7.47;;;4.05;;
46407;SDS011;32110;45.724;21.276;2023-04-03T09:23:51;6.72;;;3.80;;
46407;SDS011;32110;45.724;21.276;2023-04-03T09:26:18;7.95;;;4.45;;
46407;SDS011;32110;45.724;21.276;2023-04-03T09:28:44;8.82;;;4.60;;
46407;SDS011;32110;45.724;21.276;2023-04-03T09:31:23;9.07;;;4.50;;
46407;SDS011;32110;45.724;21.276;2023-04-03T09:33:50;5.93;;;3.87;;
46407;SDS011;32110;45.724;21.276;2023-04-03T09:36:36;7.22;;;4.05;;
46407;SDS011;32110;45.724;21.276;2023-04-03T09:39:04;9.30;;;4.13;;
46407;SDS011;32110;45.724;21.276;2023-04-03T09:41:30;6.75;;;4.10;;
46407;SDS011;32110;45.724;21.276;2023-04-03T09:43:58;8.23;;;4.50;;
46407;SDS011;32110;45.724;21.276;2023-04-03T09:49:02;7.77;;;3.80;;
46407;SDS011;32110;45.724;21.276;2023-04-03T09:51:28;6.18;;;4.00;;
46407;SDS011;32110;45.724;21.276;2023-04-03T09:53:53;6.28;;;3.90;;
46407;SDS011;32110;45.724;21.276;2023-04-03T09:56:24;6.70;;;3.78;;
46407;SDS011;32110;45.724;21.276;2023-04-03T10:01:26;8.20;;;4.10;;
46407;SDS011;32110;45.724;21.276;2023-04-03T10:04:06;8.98;;;4.38;;
46407;SDS011;32110;45.724;21.276;2023-04-03T10:09:05;8.03;;;4.83;;
46407;SDS011;32110;45.724;21.276;2023-04-03T10:11:31;9.23;;;5.97;;
46407;SDS011;32110;45.724;21.276;2023-04-03T10:13:57;11.17;;;5.83;;
46407;SDS011;32110;45.724;21.276;2023-04-03T10:16:29;8.48;;;4.97;;
46407;SDS011;32110;45.724;21.276;2023-04-03T10:21:38;7.87;;;3.43;;
46407;SDS011;32110;45.724;21.276;2023-04-03T10:24:09;5.20;;;3.45;;
46407;SDS011;32110;45.724;21.276;2023-04-03T10:26:57;6.32;;;3.45;;
46407;SDS011;32110;45.724;21.276;2023-04-03T10:34:35;6.18;;;3.30;;
46407;SDS011;32110;45.724;21.276;2023-04-03T10:42:33;4.88;;;3.40;;
46407;SDS011;32110;45.724;21.276;2023-04-03T10:50:31;4.18;;;2.55;;
46407;SDS011;32110;45.724;21.276;2023-04-03T10:53:16;4.82;;;2.72;;
46407;SDS011;32110;45.724;21.276;2023-04-03T10:58:45;7.40;;;3.30;;
46407;SDS011;32110;45.724;21.276;2023-04-03T11:01:20;4.82;;;2.70;;
46407;SDS011;32110;45.724;21.276;2023-04-03T11:03:50;5.43;;;2.72;;
46407;SDS011;32110;45.724;21.276;2023-04-03T11:06:17;3.33;;;2.50;;
46407;SDS011;32110;45.724;21.276;2023-04-03T11:08:45;5.38;;;2.60;;
46407;SDS011;32110;45.724;21.276;2023-04-03T11:11:15;4.25;;;2.50;;
46407;SDS011;32110;45.724;21.276;2023-04-03T11:13:43;7.25;;;2.33;;
46407;SDS011;32110;45.724;21.276;2023-04-03T11:16:09;5.60;;;2.17;;
46407;SDS011;32110;45.724;21.276;2023-04-03T11:21:10;4.97;;;2.70;;
46407;SDS011;32110;45.724;21.276;2023-04-03T11:23:38;4.13;;;2.35;;
46407;SDS011;32110;45.724;21.276;2023-04-03T11:26:14;4.13;;;2.58;;
46407;SDS011;32110;45.724;21.276;2023-04-03T11:28:40;4.18;;;2.38;;
46407;SDS011;32110;45.724;21.276;2023-04-03T11:31:09;3.47;;;2.58;;
46407;SDS011;32110;45.724;21.276;2023-04-03T11:38:33;5.00;;;2.80;;
46407;SDS011;32110;45.724;21.276;2023-04-03T11:41:01;6.85;;;2.30;;
46407;SDS011;32110;45.724;21.276;2023-04-03T11:43:31;4.82;;;2.47;;
46407;SDS011;32110;45.724;21.276;2023-04-03T11:50:53;5.60;;;2.00;;
46407;SDS011;32110;45.724;21.276;2023-04-03T11:53:25;4.00;;;2.85;;
46407;SDS011;32110;45.724;21.276;2023-04-03T11:55:59;5.28;;;2.80;;
46407;SDS011;32110;45.724;21.276;2023-04-03T11:58:34;13.15;;;2.13;;
46407;SDS011;32110;45.724;21.276;2023-04-03T12:14:13;5.72;;;1.95;;
46407;SDS011;32110;45.724;21.276;2023-04-03T12:26:23;5.37;;;1.63;;
46407;SDS011;32110;45.724;21.276;2023-04-03T12:28:51;5.45;;;2.05;;
46407;SDS011;32110;45.724;21.276;2023-04-03T12:31:18;4.97;;;1.45;;
46407;SDS011;32110;45.724;21.276;2023-04-03T12:36:11;12.40;;;2.63;;
46407;SDS011;32110;45.724;21.276;2023-04-03T12:46:20;14.20;;;4.53;;
46407;SDS011;32110;45.724;21.276;2023-04-03T12:48:50;17.48;;;2.03;;
46407;SDS011;32110;45.724;21.276;2023-04-03T12:51:23;8.20;;;1.70;;
46407;SDS011;32110;45.724;21.276;2023-04-03T12:53:52;4.10;;;1.63;;
46407;SDS011;32110;45.724;21.276;2023-04-03T12:58:47;16.47;;;1.90;;
46407;SDS011;32110;45.724;21.276;2023-04-03T13:01:13;5.35;;;1.55;;
46407;SDS011;32110;45.724;21.276;2023-04-03T13:03:40;7.30;;;1.60;;
46407;SDS011;32110;45.724;21.276;2023-04-03T13:06:06;9.63;;;1.52;;
46407;SDS011;32110;45.724;21.276;2023-04-03T13:08:31;4.82;;;1.30;;
46407;SDS011;32110;45.724;21.276;2023-04-03T13:11:08;8.10;;;1.50;;
46407;SDS011;32110;45.724;21.276;2023-04-03T13:13:35;10.40;;;2.40;;
46407;SDS011;32110;45.724;21.276;2023-04-03T13:16:07;8.75;;;1.70;;
46407;SDS011;32110;45.724;21.276;2023-04-03T13:18:34;7.70;;;1.85;;
46407;SDS011;32110;45.724;21.276;2023-04-03T13:21:22;9.38;;;3.13;;
46407;SDS011;32110;45.724;21.276;2023-04-03T13:23:46;8.15;;;2.58;;
46407;SDS011;32110;45.724;21.276;2023-04-03T13:26:15;8.63;;;1.83;;
46407;SDS011;32110;45.724;21.276;2023-04-03T13:28:41;11.55;;;2.58;;
46407;SDS011;32110;45.724;21.276;2023-04-03T13:33:32;18.63;;;3.27;;
46407;SDS011;32110;45.724;21.276;2023-04-03T13:36:03;14.10;;;2.40;;
46407;SDS011;32110;45.724;21.276;2023-04-03T13:38:29;11.20;;;1.65;;
46407;SDS011;32110;45.724;21.276;2023-04-03T13:40:59;14.02;;;1.38;;
46407;SDS011;32110;45.724;21.276;2023-04-03T13:48:22;8.27;;;1.52;;
46407;SDS011;32110;45.724;21.276;2023-04-03T13:51:16;20.05;;;4.35;;
46407;SDS011;32110;45.724;21.276;2023-04-03T13:53:47;11.75;;;2.97;;
46407;SDS011;32110;45.724;21.276;2023-04-03T13:56:35;14.80;;;2.63;;
46407;SDS011;32110;45.724;21.276;2023-04-03T14:01:44;9.63;;;1.85;;
46407;SDS011;32110;45.724;21.276;2023-04-03T14:06:46;17.35;;;2.17;;
46407;SDS011;32110;45.724;21.276;2023-04-03T14:09:13;30.25;;;6.53;;
46407;SDS011;32110;45.724;21.276;2023-04-03T14:11:39;22.17;;;2.13;;
46407;SDS011;32110;45.724;21.276;2023-04-03T14:14:09;14.55;;;2.72;;
46407;SDS011;32110;45.724;21.276;2023-04-03T14:16:40;14.13;;;1.88;;
46407;SDS011;32110;45.724;21.276;2023-04-03T14:19:22;11.15;;;1.60;;
46407;SDS011;32110;45.724;21.276;2023-04-03T14:21:49;12.05;;;1.30;;
46407;SDS011;32110;45.724;21.276;2023-04-03T14:24:16;9.68;;;1.75;;
46407;SDS011;32110;45.724;21.276;2023-04-03T14:26:41;13.48;;;1.63;;
46407;SDS011;32110;45.724;21.276;2023-04-03T14:29:09;10.48;;;1.40;;
46407;SDS011;32110;45.724;21.276;2023-04-03T14:31:36;9.38;;;1.23;;
46407;SDS011;32110;45.724;21.276;2023-04-03T14:34:01;8.73;;;1.50;;
46407;SDS011;32110;45.724;21.276;2023-04-03T14:36:27;13.15;;;1.70;;
46407;SDS011;32110;45.724;21.276;2023-04-03T14:38:53;7.32;;;2.00;;
46407;SDS011;32110;45.724;21.276;2023-04-03T14:41:20;14.20;;;3.10;;
46407;SDS011;32110;45.724;21.276;2023-04-03T14:43:47;12.48;;;3.22;;
46407;SDS011;32110;45.724;21.276;2023-04-03T14:46:13;13.35;;;1.90;;
46407;SDS011;32110;45.724;21.276;2023-04-03T14:48:39;16.35;;;2.58;;
46407;SDS011;32110;45.724;21.276;2023-04-03T14:51:05;9.82;;;1.92;;
46407;SDS011;32110;45.724;21.276;2023-04-03T14:53:30;14.52;;;3.67;;
46407;SDS011;32110;45.724;21.276;2023-04-03T14:55:57;16.05;;;3.42;;
46407;SDS011;32110;45.724;21.276;2023-04-03T14:58:22;7.25;;;2.88;;
46407;SDS011;32110;45.724;21.276;2023-04-03T15:00:47;12.70;;;1.80;;
46407;SDS011;32110;45.724;21.276;2023-04-03T15:03:14;7.53;;;1.90;;
46407;SDS011;32110;45.724;21.276;2023-04-03T15:05:41;8.82;;;2.17;;
46407;SDS011;32110;45.724;21.276;2023-04-03T15:08:08;8.05;;;1.42;;
46407;SDS011;32110;45.724;21.276;2023-04-03T15:10:38;11.68;;;1.40;;
46407;SDS011;32110;45.724;21.276;2023-04-03T15:13:03;4.07;;;1.23;;
46407;SDS011;32110;45.724;21.276;2023-04-03T15:15:29;13.88;;;2.53;;
46407;SDS011;32110;45.724;21.276;2023-04-03T15:17:55;5.22;;;2.05;;
46407;SDS011;32110;45.724;21.276;2023-04-03T15:20:23;14.35;;;2.47;;
46407;SDS011;32110;45.724;21.276;2023-04-03T15:22:49;10.93;;;1.33;;
46407;SDS011;32110;45.724;21.276;2023-04-03T15:25:14;11.68;;;1.63;;
46407;SDS011;32110;45.724;21.276;2023-04-03T15:27:40;6.57;;;2.03;;
46407;SDS011;32110;45.724;21.276;2023-04-03T15:30:06;15.50;;;2.83;;
46407;SDS011;32110;45.724;21.276;2023-04-03T15:32:32;11.65;;;2.28;;
46407;SDS011;32110;45.724;21.276;2023-04-03T15:34:59;12.05;;;2.00;;
46407;SDS011;32110;45.724;21.276;2023-04-03T15:37:24;12.48;;;1.50;;
46407;SDS011;32110;45.724;21.276;2023-04-03T15:39:50;17.83;;;1.73;;
46407;SDS011;32110;45.724;21.276;2023-04-03T15:42:15;9.98;;;2.50;;
46407;SDS011;32110;45.724;21.276;2023-04-03T15:44:41;21.40;;;3.10;;
46407;SDS011;32110;45.724;21.276;2023-04-03T15:47:06;6.80;;;1.98;;
46407;SDS011;32110;45.724;21.276;2023-04-03T15:49:34;10.57;;;2.28;;
46407;SDS011;32110;45.724;21.276;2023-04-03T15:52:00;11.70;;;2.73;;
46407;SDS011;32110;45.724;21.276;2023-04-03T15:54:26;17.98;;;3.20;;
46407;SDS011;32110;45.724;21.276;2023-04-03T15:56:51;15.23;;;2.30;;
46407;SDS011;32110;45.724;21.276;2023-04-03T15:59:17;13.98;;;2.88;;
46407;SDS011;32110;45.724;21.276;2023-04-03T16:01:43;13.32;;;1.77;;
46407;SDS011;32110;45.724;21.276;2023-04-03T16:04:09;13.05;;;3.83;;
46407;SDS011;32110;45.724;21.276;2023-04-03T16:06:34;16.40;;;3.10;;
46407;SDS011;32110;45.724;21.276;2023-04-03T16:09:00;18.15;;;2.83;;
46407;SDS011;32110;45.724;21.276;2023-04-03T16:11:25;7.22;;;1.55;;
46407;SDS011;32110;45.724;21.276;2023-04-03T16:13:51;11.77;;;1.52;;
46407;SDS011;32110;45.724;21.276;2023-04-03T16:16:16;16.93;;;2.17;;
46407;SDS011;32110;45.724;21.276;2023-04-03T16:18:41;12.50;;;2.92;;
46407;SDS011;32110;45.724;21.276;2023-04-03T16:21:06;15.23;;;2.57;;
46407;SDS011;32110;45.724;21.276;2023-04-03T16:23:32;7.75;;;2.00;;
46407;SDS011;32110;45.724;21.276;2023-04-03T16:25:58;9.88;;;2.80;;